Time;durP1;ratioP1;P1;durP2;ratioP2;P2;SDS_P1;SDS_P2;PMS_P1;PMS_P2;Temp;Humidity;BMP_temperature;BMP_pressure;BME280_temperature;BME280_humidity;BME280_pressure;Samples;Min_cycle;Max_cycle;Signal;HPM_P1;HPM_P2
2024/03/12 00:00:17;;;;;;;21.23;11.60;;;7.60;99.90;;;6.89;100.00;101369.78;4137679;28;20086;-69
2024/03/12 00:02:20;;;;;;;14.55;9.98;;;7.60;99.90;;;6.88;100.00;101363.69;4137832;28;20033;-69
2024/03/12 00:04:21;;;;;;;19.75;11.85;;;7.60;99.90;;;6.87;100.00;101363.81;4136596;28;20028;-69
2024/03/12 00:06:22;;;;;;;17.17;9.35;;;7.60;99.90;;;6.84;100.00;101362.25;4136197;28;20030;-69
2024/03/12 00:08:23;;;;;;;14.90;9.55;;;7.60;99.90;;;6.80;100.00;101365.22;4120254;28;20144;-69
2024/03/12 00:10:24;;;;;;;16.60;10.15;;;7.60;99.90;;;6.77;100.00;101362.84;4137625;28;20034;-69
2024/03/12 00:12:26;;;;;;;21.20;10.93;;;7.60;99.90;;;6.75;100.00;101362.13;4120188;28;20031;-69
2024/03/12 00:14:28;;;;;;;16.17;9.88;;;7.50;99.90;;;6.75;100.00;101364.75;4137498;28;20088;-69
2024/03/12 00:16:29;;;;;;;18.77;10.00;;;7.50;99.90;;;6.72;100.00;101365.78;4137480;28;20033;-69
2024/03/12 00:18:32;;;;;;;21.00;9.93;;;7.50;99.90;;;6.73;100.00;101364.00;4120182;28;20035;-69
2024/03/12 00:20:33;;;;;;;20.60;10.83;;;7.50;99.90;;;6.72;100.00;101360.56;4137356;28;20027;-69
2024/03/12 00:22:34;;;;;;;16.95;9.95;;;7.50;99.90;;;6.72;100.00;101360.56;4137165;28;20482;-69
2024/03/12 00:24:35;;;;;;;17.85;9.73;;;7.50;99.90;;;6.73;100.00;101364.84;4136088;28;20032;-69
2024/03/12 00:26:37;;;;;;;19.83;9.98;;;7.50;99.90;;;6.73;100.00;101358.78;4137277;28;20023;-69
2024/03/12 00:28:38;;;;;;;13.40;8.80;;;7.50;99.90;;;6.73;100.00;101361.38;4137308;28;20023;-69
2024/03/12 00:30:42;;;;;;;15.65;9.20;;;7.50;99.90;;;6.83;100.00;101370.25;4137043;28;20104;-69
2024/03/12 00:32:43;;;;;;;;;;;7.50;99.90;;;6.85;100.00;101368.31;4136944;28;20398;-69
2024/03/12 00:34:45;;;;;;;15.70;8.98;;;7.60;99.90;;;6.89;100.00;101372.41;4136096;28;19972;-69
2024/03/12 00:36:47;;;;;;;16.00;8.73;;;7.60;99.90;;;6.96;100.00;101374.41;4136980;28;20053;-69
2024/03/12 00:38:48;;;;;;;16.05;8.45;;;7.70;99.90;;;7.02;100.00;101371.31;4120192;28;20038;-69
2024/03/12 00:40:50;;;;;;;16.67;9.05;;;7.70;99.90;;;7.05;100.00;101370.25;4137012;28;20026;-69
2024/03/12 00:42:51;;;;;;;17.80;9.07;;;7.70;99.90;;;7.10;100.00;101376.84;4137103;28;20445;-69
2024/03/12 00:44:52;;;;;;;12.05;7.40;;;7.80;99.90;;;7.08;100.00;101362.16;4137041;28;20035;-69
2024/03/12 00:46:54;;;;;;;11.93;7.28;;;7.80;99.90;;;7.12;100.00;101371.47;4135755;28;20026;-69
2024/03/12 00:48:57;;;;;;;17.02;9.77;;;7.80;99.90;;;7.15;100.00;101371.22;4136192;28;20078;-69
2024/03/12 00:50:57;;;;;;;15.38;9.73;;;7.80;99.90;;;7.15;100.00;101368.59;4140939;28;20025;-69
2024/03/12 00:53:01;;;;;;;13.02;8.82;;;7.80;99.90;;;7.14;100.00;101370.38;4153182;28;20592;-69
2024/03/12 00:55:03;;;;;;;12.20;8.30;;;7.80;99.90;;;7.17;100.00;101378.03;4153118;28;20022;-69
2024/03/12 00:57:07;;;;;;;14.88;8.30;;;7.80;99.90;;;7.18;100.00;101371.00;4128075;28;20051;-69
2024/03/12 00:59:08;;;;;;;15.18;8.38;;;7.90;99.90;;;7.20;100.00;101371.69;4135786;28;20104;-69
2024/03/12 01:01:14;;;;;;;14.02;8.40;;;7.90;99.90;;;7.22;100.00;101377.69;4136708;28;20039;-69
2024/03/12 01:03:17;;;;;;;16.90;8.65;;;7.90;99.90;;;7.21;100.00;101365.50;4136795;28;20026;-69
2024/03/12 01:05:20;;;;;;;17.33;8.73;;;7.90;99.90;;;7.23;100.00;101371.47;4136156;28;20029;-69
2024/03/12 01:07:21;;;;;;;17.50;8.40;;;7.90;99.90;;;7.22;100.00;101377.69;4123460;28;20026;-69
2024/03/12 01:09:22;;;;;;;18.33;8.90;;;7.90;99.90;;;7.20;100.00;101376.94;4136687;28;20049;-69
2024/03/12 01:11:24;;;;;;;23.30;9.15;;;7.90;99.90;;;7.22;100.00;101380.31;4136621;28;20113;-69
2024/03/12 01:13:27;;;;;;;15.50;8.20;;;7.90;99.90;;;7.23;100.00;101374.09;4135470;28;20037;-69
2024/03/12 01:15:28;;;;;;;19.08;8.20;;;7.90;99.90;;;7.22;100.00;101380.31;4136867;28;20026;-69
2024/03/12 01:17:29;;;;;;;13.73;7.82;;;7.90;99.90;;;7.24;100.00;101381.84;4136514;28;20038;-69
2024/03/12 01:19:30;;;;;;;13.25;8.05;;;7.90;99.90;;;7.23;100.00;101377.53;4136475;28;20038;-69
2024/03/12 01:21:32;;;;;;;15.18;8.55;;;7.90;99.90;;;7.24;100.00;101373.13;4134952;28;20034;-69
2024/03/12 01:23:34;;;;;;;12.85;7.78;;;7.90;99.90;;;7.27;100.00;101372.06;4136515;28;20025;-69
2024/03/12 01:25:35;;;;;;;16.98;9.40;;;7.90;99.90;;;7.29;100.00;101378.84;4136322;28;20026;-69
2024/03/12 01:27:36;;;;;;;15.18;8.05;;;8.00;99.90;;;7.26;100.00;101367.78;4135168;28;20030;-69
2024/03/12 01:29:37;;;;;;;13.32;7.50;;;8.00;99.90;;;7.27;100.00;101367.66;4119035;28;20038;-69
2024/03/12 01:31:38;;;;;;;16.38;8.32;;;8.00;99.90;;;7.26;100.00;101368.59;4136168;28;20038;-69
2024/03/12 01:33:39;;;;;;;15.05;7.28;;;8.00;99.90;;;7.27;100.00;101354.53;4136365;28;20022;-69
2024/03/12 01:35:40;;;;;;;18.65;8.23;;;7.90;99.90;;;7.27;100.00;101362.41;4136419;28;20029;-69
2024/03/12 01:37:49;;;;;;;13.85;7.57;;;7.90;99.90;;;7.23;100.00;101361.81;4135717;28;20411;-69
2024/03/12 01:39:53;;;;;;;12.55;7.25;;;7.90;99.90;;;7.19;100.00;101356.94;4135131;28;20049;-69
2024/03/12 01:41:55;;;;;;;16.35;7.60;;;7.90;99.90;;;7.18;100.00;101357.88;4135107;28;20022;-69
2024/03/12 01:44:02;;;;;;;13.30;7.60;;;7.90;99.90;;;7.22;100.00;101372.44;4135364;28;20489;-69
2024/03/12 01:46:03;;;;;;;12.50;7.10;;;7.90;99.90;;;7.21;100.00;101362.88;4122483;28;20030;-69
2024/03/12 01:48:09;;;;;;;17.88;7.22;;;7.90;99.90;;;7.23;100.00;101364.44;4134939;28;20073;-69
2024/03/12 01:50:11;;;;;;;16.27;7.22;;;7.90;99.90;;;7.23;100.00;101367.06;4134905;28;20058;-69
2024/03/12 01:52:12;;;;;;;11.35;5.90;;;7.90;99.90;;;7.26;100.00;101370.41;4134825;28;20438;-69
2024/03/12 01:54:14;;;;;;;14.10;6.15;;;7.90;99.90;;;7.28;100.00;101363.25;4136239;28;20080;-69
2024/03/12 01:56:15;;;;;;;14.13;5.43;;;8.00;99.90;;;7.31;100.00;101360.38;4135154;28;20033;-69
2024/03/12 01:58:20;;;;;;;13.82;6.30;;;8.00;99.90;;;7.32;100.00;101356.81;4118948;28;20031;-69
2024/03/12 02:00:21;;;;;;;16.30;6.07;;;8.00;99.90;;;7.36;100.00;101359.06;4135878;28;20034;-69
2024/03/12 02:02:22;;;;;;;11.13;5.25;;;8.00;99.90;;;7.37;100.00;101355.50;4136116;28;20109;-69
2024/03/12 02:04:24;;;;;;;17.42;5.93;;;8.10;99.90;;;7.40;100.00;101355.25;4134891;28;20030;-69
2024/03/12 02:06:25;;;;;;;16.85;6.75;;;8.00;99.90;;;7.45;100.00;101357.50;4135741;28;20073;-69
2024/03/12 02:08:26;;;;;;;12.70;5.85;;;8.10;99.90;;;7.40;100.00;101346.53;4135900;28;20023;-69
2024/03/12 02:10:27;;;;;;;13.73;5.63;;;8.10;99.90;;;7.39;100.00;101350.94;4136016;28;20106;-69
2024/03/12 02:12:28;;;;;;;18.13;5.30;;;8.00;99.90;;;7.39;100.00;101350.94;4135980;28;20129;-69
2024/03/12 02:14:28;;;;;;;10.90;4.93;;;8.00;99.90;;;7.41;100.00;101346.41;4135997;28;20110;-69
2024/03/12 02:16:29;;;;;;;11.18;5.53;;;8.10;99.90;;;7.39;100.00;101348.31;4134562;28;20034;-69
2024/03/12 02:18:32;;;;;;;15.73;6.00;;;8.00;99.90;;;7.34;100.00;101347.03;4136006;28;20038;-69
2024/03/12 02:20:33;;;;;;;22.98;6.57;;;8.00;99.90;;;7.42;100.00;101342.84;4136046;28;20478;-69
2024/03/12 02:22:35;;;;;;;17.58;6.00;;;8.00;99.90;;;7.38;100.00;101341.41;4135721;28;20085;-69
2024/03/12 02:24:36;;;;;;;15.05;5.80;;;8.00;99.90;;;7.37;100.00;101341.53;4134604;28;20026;-69
2024/03/12 02:26:37;;;;;;;17.13;6.05;;;8.00;99.90;;;7.35;100.00;101344.25;4135878;28;20026;-69
2024/03/12 02:28:38;;;;;;;19.15;5.55;;;8.00;99.90;;;7.31;100.00;101344.63;4135919;28;20023;-69
2024/03/12 02:30:39;;;;;;;19.80;4.95;;;8.00;99.90;;;7.35;100.00;101346.88;4135696;28;20105;-69
2024/03/12 02:32:40;;;;;;;11.25;5.30;;;8.00;99.90;;;7.35;100.00;101341.63;4135873;28;20026;-69
2024/03/12 02:34:41;;;;;;;12.30;4.80;;;8.00;99.90;;;7.38;100.00;101351.91;4135920;28;20030;-70
2024/03/12 02:36:42;;;;;;;20.02;6.00;;;8.00;99.90;;;7.40;100.00;101350.00;4135733;28;20506;-69
2024/03/12 02:38:43;;;;;;;15.73;5.05;;;8.00;99.90;;;7.39;100.00;101347.47;4135772;28;20069;-69
2024/03/12 02:40:45;;;;;;;19.25;5.70;;;8.00;99.90;;;7.40;100.00;101342.13;4134282;28;20110;-69
2024/03/12 02:42:46;;;;;;;12.70;5.78;;;8.00;99.90;;;7.42;100.00;101342.00;4135935;28;20502;-69
2024/03/12 02:44:47;;;;;;;15.15;5.47;;;8.10;99.90;;;7.42;100.00;101348.09;4135836;28;20049;-69
2024/03/12 02:46:52;;;;;;;13.27;5.05;;;8.10;99.90;;;7.41;100.00;101335.91;4134408;28;20018;-69
2024/03/12 02:48:54;;;;;;;16.30;4.93;;;8.10;99.90;;;7.38;100.00;101338.78;4135533;28;20106;-69
2024/03/12 02:50:55;;;;;;;16.48;5.43;;;8.10;99.90;;;7.42;100.00;101342.00;4135259;28;20034;-69
2024/03/12 02:52:55;;;;;;;14.27;4.10;;;8.10;99.90;;;7.39;100.00;101331.72;4142287;28;20029;-69
2024/03/12 02:54:56;;;;;;;13.48;4.13;;;8.10;99.90;;;7.38;100.00;101327.47;4151901;28;20037;-69
2024/03/12 02:56:57;;;;;;;12.13;4.55;;;8.10;99.90;;;7.37;100.00;101331.88;4148787;28;20023;-69
2024/03/12 02:58:58;;;;;;;17.83;4.50;;;8.00;99.90;;;7.37;100.00;101334.50;4137480;28;20037;-69
2024/03/12 03:00:59;;;;;;;13.65;5.03;;;8.10;99.90;;;7.34;100.00;101329.50;4138818;28;20026;-69
2024/03/12 03:03:00;;;;;;;9.93;4.32;;;8.00;99.90;;;7.38;100.00;101338.78;4137467;28;20466;-69
2024/03/12 03:05:01;;;;;;;15.10;4.03;;;8.10;99.90;;;7.34;100.00;101334.75;4138665;28;20072;-69
2024/03/12 03:07:04;;;;;;;19.13;4.78;;;8.00;99.90;;;7.36;100.00;101342.47;4137044;28;20058;-69
2024/03/12 03:09:09;;;;;;;13.95;4.20;;;8.00;99.90;;;7.35;100.00;101333.75;4138694;28;20452;-69
2024/03/12 03:11:10;;;;;;;23.23;6.15;;;8.00;99.90;;;7.31;100.00;101324.47;4138454;28;20041;-69
2024/03/12 03:13:11;;;;;;;13.18;4.70;;;8.00;99.90;;;7.35;100.00;101323.25;4138325;28;20030;-70
2024/03/12 03:15:12;;;;;;;12.65;4.03;;;8.00;99.90;;;7.37;100.00;101328.41;4138535;28;20026;-69
2024/03/12 03:17:13;;;;;;;14.80;4.55;;;8.00;99.90;;;7.40;100.00;101323.75;4127859;28;20046;-69
2024/03/12 03:19:14;;;;;;;12.85;4.82;;;8.00;99.90;;;7.41;100.00;101325.41;4138326;28;20445;-69
2024/03/12 03:21:15;;;;;;;18.35;5.63;;;8.10;99.90;;;7.42;100.00;101310.50;4138045;28;20026;-69
2024/03/12 03:23:16;;;;;;;12.50;4.70;;;8.10;99.90;;;7.47;100.00;101322.28;4137219;28;20045;-69
2024/03/12 03:25:16;;;;;;;12.38;4.82;;;8.20;99.90;;;7.48;100.00;101318.72;4138368;28;20028;-69
2024/03/12 03:27:17;;;;;;;13.57;5.10;;;8.20;99.90;;;7.46;100.00;101310.16;4138193;28;20037;-69
2024/03/12 03:29:21;;;;;;;12.63;4.85;;;8.20;99.90;;;7.50;100.00;101306.31;4138229;28;20018;-69
2024/03/12 03:31:22;;;;;;;10.82;4.40;;;8.20;99.90;;;7.48;100.00;101308.22;4136759;28;20051;-69
2024/03/12 03:33:24;;;;;;;8.75;4.07;;;8.20;99.90;;;7.49;100.00;101307.28;4138209;28;20418;-69
2024/03/12 03:35:25;;;;;;;14.80;4.18;;;8.20;99.90;;;7.47;100.00;101300.44;4138260;28;20459;-69
2024/03/12 03:37:30;;;;;;;16.65;4.32;;;8.20;99.90;;;7.46;100.00;101299.66;4137589;28;20088;-69
2024/03/12 03:39:35;;;;;;;14.90;4.70;;;8.20;99.90;;;7.48;100.00;101305.59;4125379;28;20049;-69
2024/03/12 03:41:38;;;;;;;10.88;4.32;;;8.20;99.90;;;7.46;100.00;101310.16;4138155;28;20057;-69
2024/03/12 03:43:42;;;;;;;7.38;3.88;;;8.20;99.90;;;7.47;100.00;101301.28;4137986;28;20479;-69
2024/03/12 03:45:43;;;;;;;8.10;4.28;;;8.20;99.90;;;7.48;100.00;101304.75;4136702;28;20117;-69
2024/03/12 03:47:44;;;;;;;14.63;4.32;;;8.20;99.90;;;7.48;100.00;101305.59;4137831;28;20486;-69
2024/03/12 03:49:47;;;;;;;10.57;4.53;;;8.20;99.90;;;7.49;100.00;101312.53;4137826;28;20025;-69
2024/03/12 03:51:48;;;;;;;8.82;4.00;;;8.20;99.90;;;7.48;100.00;101310.84;4137821;28;20471;-69
2024/03/12 03:53:49;;;;;;;11.52;3.88;;;8.20;99.90;;;7.48;100.00;101302.13;4137893;28;20482;-69
2024/03/12 03:55:50;;;;;;;13.18;4.50;;;8.20;99.90;;;7.50;100.00;101315.97;4138017;28;20449;-69
2024/03/12 03:57:52;;;;;;;9.13;3.58;;;8.20;99.90;;;7.52;100.00;101314.91;4136557;28;20026;-69
2024/03/12 03:59:53;;;;;;;9.73;3.88;;;8.20;99.90;;;7.52;100.00;101317.53;4120571;28;20031;-69
2024/03/12 04:01:55;;;;;;;11.00;3.50;;;8.20;99.90;;;7.54;100.00;101315.63;4137549;28;20549;-69
2024/03/12 04:03:56;;;;;;;8.55;3.85;;;8.20;99.90;;;7.54;100.00;101314.78;4137784;28;20022;-69
2024/03/12 04:05:57;;;;;;;12.85;3.65;;;8.20;99.90;;;7.55;100.00;101313.81;4137617;28;20037;-69
2024/03/12 04:07:58;;;;;;;12.90;4.80;;;8.20;99.90;;;7.56;100.00;101313.69;4119222;28;20491;-69
2024/03/12 04:09:59;;;;;;;12.57;3.75;;;8.30;99.90;;;7.61;100.00;101315.97;4120582;28;20082;-69
2024/03/12 04:12:00;;;;;;;8.30;4.50;;;8.30;99.90;;;7.62;100.00;101314.97;4137641;28;20026;-69
2024/03/12 04:14:02;;;;;;;14.80;4.28;;;8.30;99.90;;;7.63;100.00;101319.28;4137765;28;20030;-69
2024/03/12 04:16:05;;;;;;;14.52;4.82;;;8.30;99.90;;;7.65;100.00;101320.84;4136679;28;20501;-69
2024/03/12 04:18:07;;;;;;;13.43;4.38;;;8.40;99.90;;;7.67;100.00;101320.72;4137393;28;20583;-69
2024/03/12 04:20:09;;;;;;;17.25;4.10;;;8.30;99.90;;;7.69;100.00;101321.41;4136112;28;20502;-69
2024/03/12 04:22:10;;;;;;;13.55;4.70;;;8.40;99.90;;;7.68;100.00;101317.13;4120146;28;20023;-69
2024/03/12 04:24:13;;;;;;;14.38;4.13;;;8.40;99.90;;;7.74;100.00;101324.50;4137540;28;20089;-69
2024/03/12 04:26:14;;;;;;;12.50;3.72;;;8.40;99.90;;;7.72;100.00;101314.13;4137402;28;20048;-69
2024/03/12 04:28:16;;;;;;;10.73;3.88;;;8.40;99.90;;;7.75;100.00;101315.69;4137191;28;20026;-69
2024/03/12 04:30:17;;;;;;;10.38;3.75;;;8.40;99.90;;;7.77;100.00;101317.22;4137219;28;20025;-70
2024/03/12 04:32:17;;;;;;;14.73;4.28;;;8.50;99.90;;;7.78;100.00;101313.66;4136195;28;20031;-69
2024/03/12 04:34:20;;;;;;;15.00;3.92;;;8.40;99.90;;;7.79;100.00;101309.22;4137162;28;20034;-69
2024/03/12 04:36:24;;;;;;;18.00;6.03;;;8.50;99.90;;;7.82;100.00;101309.78;4137322;28;20026;-69
2024/03/12 04:38:25;;;;;;;10.75;4.38;;;8.50;99.90;;;7.82;100.00;101309.78;4136986;28;20557;-69
2024/03/12 04:40:26;;;;;;;11.60;3.72;;;8.50;99.90;;;7.85;100.00;101313.16;4137214;28;20042;-69
2024/03/12 04:42:27;;;;;;;12.95;3.97;;;8.50;99.90;;;7.87;100.00;101306.81;4136998;28;20054;-69
2024/03/12 04:44:29;;;;;;;12.35;4.30;;;8.50;99.90;;;7.85;100.00;101297.38;4137140;28;20545;-69
2024/03/12 04:46:30;;;;;;;14.60;4.82;;;8.60;99.90;;;7.88;100.00;101302.41;4136031;28;20163;-69
2024/03/12 04:48:31;;;;;;;9.73;4.18;;;8.60;99.90;;;7.91;100.00;101310.88;4136812;28;20030;-69
2024/03/12 04:50:32;;;;;;;11.30;3.70;;;8.60;99.90;;;7.92;100.00;101306.41;4136647;28;20030;-69
2024/03/12 04:52:33;;;;;;;10.55;3.58;;;8.60;99.90;;;7.93;100.00;101306.31;4135766;28;20518;-69
2024/03/12 04:54:34;;;;;;;7.03;3.55;;;8.60;99.90;;;7.95;100.00;101308.78;4136879;28;20057;-69
2024/03/12 04:56:35;;;;;;;9.07;3.83;;;8.60;99.90;;;7.92;100.00;101303.78;4136378;28;20030;-69
2024/03/12 04:58:36;;;;;;;12.23;3.80;;;8.60;99.90;;;7.94;100.00;101300.09;4136591;28;20073;-69
2024/03/12 05:00:37;;;;;;;11.82;3.60;;;8.60;99.90;;;7.97;100.00;101305.09;4136634;28;20085;-69
2024/03/12 05:02:38;;;;;;;12.13;3.40;;;8.70;99.90;;;8.00;100.00;101306.66;4136782;28;20494;-69
2024/03/12 05:04:39;;;;;;;12.43;4.20;;;8.60;99.90;;;8.02;100.00;101304.72;4136748;28;20371;-69
2024/03/12 05:06:41;;;;;;;7.97;3.65;;;8.70;99.90;;;8.00;100.00;101311.91;4136430;28;20037;-69
2024/03/12 05:08:41;;;;;;;10.85;3.45;;;8.70;99.90;;;8.00;100.00;101299.59;4136644;28;20501;-69
2024/03/12 05:10:42;;;;;;;15.88;3.22;;;8.70;99.90;;;8.03;100.00;101312.50;4136722;28;20040;-69
2024/03/12 05:12:44;;;;;;;13.95;4.70;;;8.70;99.90;;;8.08;100.00;101307.69;4136393;28;20034;-69
2024/03/12 05:14:44;;;;;;;15.88;4.43;;;8.70;99.90;;;8.12;100.00;101313.53;4148946;28;20030;-69
2024/03/12 05:16:46;;;;;;;12.07;3.70;;;8.70;99.90;;;8.15;100.00;101318.53;4151738;28;20498;-69
2024/03/12 05:18:47;;;;;;;13.05;4.38;;;8.80;99.90;;;8.17;100.00;101317.44;4136556;28;20040;-69
2024/03/12 05:20:47;;;;;;;14.73;3.85;;;8.80;99.90;;;8.17;100.00;101317.44;4136240;28;20486;-69
2024/03/12 05:22:48;;;;;;;16.60;3.97;;;8.80;99.90;;;8.24;100.00;101315.13;4135296;28;20509;-69
2024/03/12 05:24:50;;;;;;;11.07;3.30;;;8.90;99.90;;;8.23;100.00;101324.81;4136375;28;20034;-69
2024/03/12 05:26:54;;;;;;;13.27;3.42;;;8.90;99.90;;;8.25;100.00;101324.66;4136566;28;20058;-69
2024/03/12 05:28:57;;;;;;;13.38;3.33;;;8.90;99.90;;;8.25;100.00;101316.78;4136425;28;20394;-69
2024/03/12 05:30:58;;;;;;;13.02;3.45;;;8.90;99.90;;;8.25;100.00;101322.03;4136233;28;20117;-69
2024/03/12 05:33:03;;;;;;;10.27;3.80;;;8.90;99.90;;;8.23;100.00;101323.97;4135117;28;20038;-69
2024/03/12 05:35:05;;;;;;;17.08;3.55;;;8.90;99.90;;;8.25;100.00;101324.66;4136643;28;20080;-69
2024/03/12 05:37:15;;;;;;;16.88;3.75;;;8.90;99.90;;;8.30;100.00;101325.19;4134808;28;20379;-69
2024/03/12 05:39:26;;;;;;;17.52;4.78;;;9.00;99.90;;;8.32;100.00;101329.34;4118683;28;20494;-69
2024/03/12 05:41:29;;;;;;;13.07;3.00;;;9.00;99.90;;;8.31;100.00;101326.81;4136065;28;20177;-69
2024/03/12 05:48:10;;;;;;;13.63;3.42;;;9.00;99.90;;;8.39;100.00;101329.69;4135190;28;20084;-69
2024/03/12 05:50:16;;;;;;;19.15;3.58;;;9.10;99.90;;;8.42;100.00;101339.94;4134764;28;20081;-71
2024/03/12 05:52:19;;;;;;;16.38;4.45;;;9.10;99.90;;;8.51;100.00;101347.03;4135625;28;20125;-71
2024/03/12 05:54:19;;;;;;;18.35;3.28;;;9.10;99.90;;;8.53;100.00;101346.91;4136233;28;20398;-71
2024/03/12 05:56:21;;;;;;;14.88;3.28;;;9.20;99.90;;;8.60;100.00;101346.25;4135154;28;20034;-71
2024/03/12 05:58:22;;;;;;;16.67;2.75;;;9.20;99.90;;;8.67;100.00;101344.78;4136186;28;20034;-71
2024/03/12 06:00:23;;;;;;;15.13;2.80;;;9.30;99.90;;;8.76;100.00;101341.38;4134767;28;20027;-71
2024/03/12 06:02:24;;;;;;;17.85;3.50;;;9.40;99.90;;;8.82;100.00;101347.91;4136292;28;20367;-71
2024/03/12 06:04:31;;;;;;;15.05;4.00;;;9.40;99.90;;;8.87;100.00;101341.31;4136104;28;20037;-72
2024/03/12 06:06:32;;;;;;;12.07;2.88;;;9.50;99.90;;;8.94;100.00;101346.88;4134699;28;20038;-71
2024/03/12 06:08:33;;;;;;;14.10;3.22;;;9.60;99.90;;;8.96;100.00;101342.31;4135816;28;20483;-71
2024/03/12 06:10:34;;;;;;;13.60;2.95;;;9.60;99.90;;;8.97;100.00;101330.00;4136124;28;20030;-72
2024/03/12 06:12:36;;;;;;;18.83;2.60;;;9.60;99.90;;;9.02;100.00;101333.09;4136050;28;20031;-71
2024/03/12 06:14:37;;;;;;;13.95;2.80;;;9.60;99.90;;;9.03;100.00;101334.72;4135988;28;20463;-71
2024/03/12 06:16:38;;;;;;;15.88;2.60;;;9.70;99.90;;;9.06;100.00;101329.22;4135842;28;20032;-72
2024/03/12 06:18:39;;;;;;;13.38;3.30;;;9.70;99.90;;;9.07;100.00;101330.88;4135879;28;20033;-72
2024/03/12 06:20:44;;;;;;;13.00;3.35;;;9.70;99.90;;;9.10;100.00;101341.16;4135681;28;20033;-71
2024/03/12 06:22:45;;;;;;;18.08;2.78;;;9.70;99.90;;;9.10;100.00;101344.63;4135939;28;20398;-71
2024/03/12 06:24:47;;;;;;;10.40;2.45;;;9.70;99.90;;;9.10;100.00;101333.25;4135876;28;20022;-72
2024/03/12 06:26:48;;;;;;;9.77;2.80;;;9.70;99.90;;;9.12;100.00;101344.47;4134820;28;20493;-71
2024/03/12 06:28:49;;;;;;;11.57;2.03;;;9.70;99.90;;;9.14;100.00;101347.81;4135760;28;20022;-72
2024/03/12 06:30:51;;;;;;;11.82;2.60;;;9.80;99.90;;;9.15;100.00;101344.22;4137150;28;20109;-72
2024/03/12 06:32:52;;;;;;;12.48;2.20;;;9.80;99.90;;;9.17;100.00;101348.38;4138977;28;20030;-72
2024/03/12 06:34:53;;;;;;;8.40;2.20;;;9.80;99.90;;;9.17;100.00;101344.94;4139327;28;20502;-71
2024/03/12 06:36:57;;;;;;;7.70;1.98;;;9.80;99.90;;;9.19;100.00;101345.63;4137712;28;20026;-72
2024/03/12 06:38:59;;;;;;;10.00;3.33;;;9.80;99.90;;;9.24;100.00;101343.41;4122062;28;20122;-72
2024/03/12 06:41:00;;;;;;;13.68;2.95;;;9.90;99.90;;;9.23;100.00;101328.56;4138706;28;20030;-72
2024/03/12 06:43:00;;;;;;;6.50;1.67;;;9.90;99.90;;;9.28;100.00;101334.31;4137827;28;20034;-71
2024/03/12 06:45:02;;;;;;;5.15;1.38;;;9.90;99.90;;;9.30;100.00;101332.34;4137480;28;20057;-71
2024/03/12 06:47:04;;;;;;;10.80;1.92;;;9.90;99.90;;;9.33;100.00;101335.56;4138829;28;20487;-71
2024/03/12 06:49:09;;;;;;;7.00;1.27;;;10.00;99.90;;;9.36;100.00;101343.19;4138636;28;20422;-71
2024/03/12 06:51:10;;;;;;;6.00;1.42;;;10.00;99.90;;;9.39;100.00;101340.28;4138666;28;20026;-71
2024/03/12 06:53:14;;;;;;;4.70;1.05;;;10.00;99.90;;;9.43;100.00;101346.13;4138694;28;20084;-71
2024/03/12 06:55:16;;;;;;;4.38;1.42;;;10.00;99.90;;;9.46;100.00;101348.50;4121709;28;20035;-71
2024/03/12 06:57:21;;;;;;;3.45;1.40;;;10.10;99.90;;;9.47;100.00;101329.06;4138669;28;20521;-71
2024/03/12 06:59:21;;;;;;;7.50;1.60;;;10.10;99.90;;;9.51;100.00;101332.28;4138817;28;20093;-71
2024/03/12 07:01:25;;;;;;;9.10;1.70;;;10.10;99.90;;;9.56;100.00;101341.44;4138600;28;20033;-71
2024/03/12 07:03:27;;;;;;;5.78;1.73;;;10.20;99.90;;;9.60;100.00;101345.47;4138517;28;20027;-69
2024/03/12 07:05:29;;;;;;;7.45;2.40;;;10.20;99.90;;;9.65;100.00;101348.53;4137767;28;20025;-69
2024/03/12 07:07:31;;;;;;;6.18;2.33;;;10.20;99.90;;;9.68;100.00;101348.25;4121195;28;20026;-69
2024/03/12 07:09:37;;;;;;;8.55;2.95;;;10.30;99.90;;;9.71;100.00;101355.06;4138468;28;20023;-69
2024/03/12 07:11:41;;;;;;;6.82;3.05;;;10.30;99.90;;;9.74;100.00;101363.53;4138336;28;20038;-69
2024/03/12 07:13:43;;;;;;;8.13;2.33;;;10.30;99.90;;;9.76;100.00;101358.97;4137465;28;20030;-69
2024/03/12 07:15:45;;;;;;;5.90;3.05;;;10.40;99.90;;;9.79;100.00;101361.34;4138442;28;20034;-68
2024/03/12 07:17:46;;;;;;;8.88;3.05;;;10.40;99.90;;;9.81;100.00;101359.41;4136597;28;20029;-68
2024/03/12 07:19:49;;;;;;;8.32;3.40;;;10.40;99.90;;;9.88;100.00;101368.44;4138406;28;20026;-68
2024/03/12 07:21:50;;;;;;;10.68;2.65;;;10.50;99.90;;;9.90;100.00;101363.00;4138193;28;20026;-69
2024/03/12 07:23:51;;;;;;;9.30;2.83;;;10.50;99.90;;;9.94;100.00;101359.97;4138369;28;20036;-68
2024/03/12 07:25:52;;;;;;;7.30;2.78;;;10.50;99.90;;;10.02;100.00;101356.66;4138401;28;20405;-69
2024/03/12 07:27:54;;;;;;;6.03;2.20;;;10.60;99.90;;;10.09;100.00;101357.78;4138108;28;20022;-69
2024/03/12 07:29:55;;;;;;;7.68;2.08;;;10.70;99.90;;;10.15;100.00;101357.25;4137143;28;20117;-69
2024/03/12 07:31:56;;;;;;;12.23;2.70;;;10.70;99.90;;;10.22;100.00;101360.97;4137972;28;20065;-69
2024/03/12 07:33:58;;;;;;;9.30;2.97;;;10.80;99.90;;;10.26;100.00;101359.75;4138190;28;20031;-68
2024/03/12 07:35:59;;;;;;;7.10;2.70;;;10.90;99.90;;;10.30;100.00;101355.88;4137820;28;20434;-69
2024/03/12 07:38:00;;;;;;;11.38;3.22;;;10.90;99.90;;;10.33;100.00;101355.59;4138161;28;20022;-69
2024/03/12 07:40:01;;;;;;;7.78;2.35;;;11.00;99.90;;;10.40;100.00;101361.13;4138069;28;20030;-69
2024/03/12 07:42:09;;;;;;;9.68;2.60;;;11.00;99.90;;;10.43;100.00;101364.31;4136720;28;20030;-69
2024/03/12 07:44:10;;;;;;;7.95;2.20;;;11.00;99.90;;;10.54;100.00;101373.91;4137918;28;20026;-69
2024/03/12 07:46:11;;;;;;;10.68;3.20;;;11.10;99.90;;;10.62;100.00;101363.47;4137108;28;20026;-69
2024/03/12 07:48:14;;;;;;;16.15;4.28;;;11.20;99.90;;;10.68;100.00;101373.47;4136733;28;20081;-69
2024/03/12 07:50:15;;;;;;;15.93;4.35;;;11.20;99.90;;;10.78;100.00;101371.63;4137860;28;20060;-69
2024/03/12 07:52:16;;;;;;;13.70;2.80;;;11.30;99.90;;;10.85;100.00;101382.44;4137632;28;20029;-70
2024/03/12 07:54:21;;;;;;;10.40;3.00;;;11.40;99.90;;;10.81;100.00;101381.09;4138249;28;20408;-69
2024/03/12 07:56:24;;;;;;;15.38;2.72;;;11.40;99.90;;;10.87;100.00;101381.31;4138045;28;20376;-69
2024/03/12 07:58:28;;;;;;;16.98;4.43;;;11.40;99.90;;;10.90;100.00;101367.03;4137763;28;20022;-69
2024/03/12 08:00:29;;;;;;;10.73;3.08;;;11.50;99.90;;;10.96;100.00;101377.81;4137639;28;20026;-69
2024/03/12 08:02:31;;;;;;;9.27;3.05;;;11.60;99.90;;;11.09;100.00;101378.34;4137841;28;20030;-69
2024/03/12 08:04:32;;;;;;;10.05;3.08;;;11.60;99.90;;;11.20;100.00;101373.88;4137727;28;20029;-71
2024/03/12 08:06:35;;;;;;;18.27;2.90;;;11.80;99.90;;;11.34;100.00;101382.16;4137392;28;20022;-70
2024/03/12 08:08:36;;;;;;;15.95;3.22;;;11.90;99.90;;;11.43;100.00;101377.81;4136437;28;20019;-69
2024/03/12 08:10:37;;;;;;;14.45;2.33;;;12.00;99.90;;;11.49;100.00;101382.53;4137729;28;20029;-69
2024/03/12 08:12:39;;;;;;;15.90;3.65;;;12.00;99.90;;;11.51;100.00;101389.31;4137643;28;20034;-69
2024/03/12 08:14:40;;;;;;;6.55;2.67;;;12.10;99.90;;;11.53;100.00;101375.94;4137469;28;20026;-69
2024/03/12 08:16:41;;;;;;;9.98;2.95;;;12.10;99.90;;;11.61;100.00;101381.34;4136387;28;20042;-69
2024/03/12 08:18:42;;;;;;;12.35;3.13;;;12.20;99.90;;;11.59;100.00;101392.06;4137409;28;20403;-69
2024/03/12 08:20:45;;;;;;;16.85;3.47;;;12.20;99.90;;;11.54;100.00;101396.13;4137171;28;20042;-69
2024/03/12 08:22:47;;;;;;;16.45;2.40;;;12.20;99.90;;;11.61;100.00;101391.91;4137338;28;20049;-68
2024/03/12 08:24:50;;;;;;;14.50;2.90;;;12.20;99.90;;;11.67;100.00;101396.63;4137271;28;20027;-69
2024/03/12 08:26:51;;;;;;;17.23;3.20;;;12.30;99.90;;;11.74;100.00;101400.34;4136296;28;20028;-70
2024/03/12 08:28:52;;;;;;;15.60;4.50;;;12.30;99.90;;;11.76;100.00;101397.56;4137245;28;20038;-69
2024/03/12 08:30:53;;;;;;;20.65;5.07;;;12.40;99.90;;;11.80;100.00;101397.13;4137176;28;20082;-69